createdAt,value
2023-04-12T17:23:44.362Z,99906.41
2023-04-12T17:28:31.028Z,99903.28
2023-04-12T17:30:57.980Z,99908.06
2023-04-12T17:33:26.400Z,99911.13
2023-04-12T17:35:53.283Z,99906.41
2023-04-12T17:38:20.739Z,99907.06
2023-04-12T17:40:47.701Z,99902.75
2023-04-12T17:43:14.521Z,99904.03
2023-04-12T17:45:41.415Z,99890.75
2023-04-12T17:48:09.082Z,99884.34
2023-04-12T17:50:36.385Z,99884.84
2023-04-12T17:53:03.708Z,99876.06
2023-04-12T17:55:30.756Z,99883.50
2023-04-12T17:57:58.353Z,99881.50
2023-04-12T18:00:25.507Z,99880.91
2023-04-12T18:02:53.465Z,99880.31
2023-04-12T18:05:20.538Z,99879.22
2023-04-12T18:07:47.384Z,99870.44
2023-04-12T18:10:15.831Z,99874.06
2023-04-12T18:12:46.654Z,99874.22
2023-04-12T18:15:13.988Z,99882.09
2023-04-12T18:17:41.446Z,99887.16
2023-04-12T18:20:12.264Z,99886.84
2023-04-12T18:22:39.407Z,99886.38
2023-04-12T18:25:09.865Z,99888.75
2023-04-12T18:27:36.779Z,99891.75
2023-04-12T18:30:05.200Z,99899.63
2023-04-12T18:32:32.288Z,99887.06
2023-04-12T18:34:59.194Z,99887.66
2023-04-12T18:37:26.071Z,99887.22
2023-04-12T18:39:53.501Z,99890.53
2023-04-12T18:42:20.401Z,99891.13
2023-04-12T18:44:47.345Z,99893.78
2023-04-12T18:47:14.259Z,99903.72
2023-04-12T18:49:41.137Z,99899.00
2023-04-12T18:52:08.054Z,99911.25
2023-04-12T18:54:35.115Z,99899.47
2023-04-12T18:57:03.682Z,99906.25
2023-04-12T18:59:30.884Z,99901.03
2023-04-12T19:01:57.980Z,99906.56
2023-04-12T19:04:25.015Z,99911.91
2023-04-12T19:06:52.796Z,99922.41
2023-04-12T19:09:19.741Z,99927.59
2023-04-12T19:11:46.737Z,99925.53
2023-04-12T19:14:13.804Z,99930.44
2023-04-12T19:16:41.678Z,99942.34
2023-04-12T19:19:08.672Z,99933.56
2023-04-12T19:21:35.673Z,99938.09
2023-04-12T19:24:02.532Z,99943.13
2023-04-12T19:26:30.466Z,99942.19
2023-04-12T19:28:59.025Z,99940.88
2023-04-12T19:31:26.414Z,99935.84
2023-04-12T19:33:55.576Z,99948.38
2023-04-12T19:36:24.929Z,99940.25
2023-04-12T19:38:52.335Z,99939.44
2023-04-12T19:41:20.684Z,99933.91
2023-04-12T19:43:47.890Z,99943.16
2023-04-12T19:46:14.942Z,99943.16
2023-04-12T19:48:41.931Z,99941.59
2023-04-12T19:51:09.113Z,99939.47
2023-04-12T19:53:35.933Z,99934.22
2023-04-12T19:56:04.411Z,99937.97
2023-04-12T19:58:32.327Z,99951.09
2023-04-12T20:01:02.380Z,99947.31
2023-04-12T20:03:29.172Z,99948.81
2023-04-12T20:05:58.373Z,99944.19
2023-04-12T20:08:25.354Z,99943.78
2023-04-12T20:10:52.283Z,99938.19
2023-04-12T20:13:19.088Z,99944.38
2023-04-12T20:15:46.284Z,99947.31
2023-04-12T20:18:13.685Z,99944.00
2023-04-12T20:20:44.313Z,99946.19
2023-04-12T20:23:12.572Z,99944.41
2023-04-12T20:25:41.959Z,99948.91
2023-04-12T20:28:09.313Z,99946.78
2023-04-12T20:30:39.746Z,99948.06
2023-04-12T20:33:08.710Z,99950.22
2023-04-12T20:35:35.782Z,99950.38
2023-04-12T20:38:02.783Z,99940.25
2023-04-12T20:40:30.429Z,99939.66
2023-04-12T20:42:57.432Z,99939.78
2023-04-12T20:45:24.489Z,99932.41
2023-04-12T20:47:51.545Z,99930.06
2023-04-12T20:50:22.623Z,99939.91
2023-04-12T20:52:52.317Z,99934.53
2023-04-12T20:55:19.825Z,99923.53
2023-04-12T20:57:47.004Z,99925.03
2023-04-12T21:00:18.342Z,99921.06
2023-04-12T21:02:49.049Z,99933.31
2023-04-12T21:05:17.238Z,99916.78
2023-04-12T21:07:46.890Z,99914.84
2023-04-12T21:10:15.281Z,99919.19
2023-04-12T21:12:43.054Z,99915.69
2023-04-12T21:15:12.011Z,99913.56
2023-04-12T21:17:39.562Z,99909.13
2023-04-12T21:20:13.826Z,99917.34
2023-04-12T21:22:43.328Z,99916.56
2023-04-12T21:25:16.506Z,99917.56
2023-04-12T21:27:45.290Z,99925.94
2023-04-12T21:30:13.438Z,99919.38
2023-04-12T21:32:41.423Z,99924.00
2023-04-12T21:35:08.893Z,99922.53
2023-04-12T21:37:37.091Z,99916.50
2023-04-12T21:40:09.349Z,99922.13
2023-04-12T21:42:40.304Z,99905.69
2023-04-12T21:45:13.235Z,99912.50
2023-04-12T21:47:41.386Z,99914.84
2023-04-12T21:50:10.075Z,99898.19
2023-04-12T21:52:37.575Z,99904.91
2023-04-12T21:55:05.374Z,99893.97
2023-04-12T21:57:33.726Z,99895.38
2023-04-12T22:00:01.807Z,99893.41
2023-04-12T22:02:38.897Z,99890.38
2023-04-12T22:05:07.044Z,99888.50
2023-04-12T22:07:33.873Z,99895.59
2023-04-12T22:10:02.125Z,99892.25
2023-04-12T22:12:29.013Z,99892.16
2023-04-12T22:14:57.909Z,99888.72
2023-04-12T22:17:25.113Z,99895.41
2023-04-12T22:19:55.302Z,99888.72
2023-04-12T22:22:22.561Z,99885.34
2023-04-12T22:24:49.454Z,99874.38
2023-04-12T22:27:16.649Z,99874.06
2023-04-12T22:29:43.774Z,99874.25
2023-04-12T22:32:10.658Z,99885.94
2023-04-12T22:34:37.491Z,99876.63
2023-04-12T22:37:05.564Z,99880.44
2023-04-12T22:39:33.167Z,99877.38
2023-04-12T22:42:00.131Z,99877.00
2023-04-12T22:44:29.346Z,99873.66
2023-04-12T22:46:56.920Z,99881.81
2023-04-12T22:49:28.379Z,99871.19
2023-04-12T22:51:56.048Z,99869.81
2023-04-12T22:54:24.261Z,99873.75
2023-04-12T22:56:51.833Z,99866.78
2023-04-12T22:59:20.285Z,99857.84
2023-04-12T23:01:47.582Z,99852.78
2023-04-12T23:04:16.039Z,99845.81
2023-04-12T23:06:44.282Z,99838.94
2023-04-12T23:09:12.649Z,99832.53
2023-04-12T23:11:41.051Z,99832.16
2023-04-12T23:14:09.258Z,99832.94
2023-04-12T23:16:42.607Z,99825.84
2023-04-12T23:19:10.328Z,99819.66
2023-04-12T23:21:37.386Z,99811.47
2023-04-12T23:24:05.420Z,99810.41
2023-04-12T23:26:34.537Z,99811.88
2023-04-12T23:29:04.429Z,99818.06
2023-04-12T23:31:32.532Z,99808.03
2023-04-12T23:34:03.536Z,99806.84
2023-04-12T23:36:30.744Z,99797.31
2023-04-12T23:39:00.528Z,99797.41
2023-04-12T23:41:32.214Z,99804.38
2023-04-12T23:43:59.807Z,99783.50
2023-04-12T23:46:27.417Z,99780.06
2023-04-12T23:48:54.484Z,99780.91
2023-04-12T23:51:22.328Z,99770.69
2023-04-12T23:53:49.297Z,99767.22
2023-04-12T23:56:16.599Z,99767.53
2023-04-12T23:58:43.505Z,99767.69
